sensor_id;sensor_type;location;lat;lon;timestamp;temperature;humidity
12180;DHT22;6153;51.490;6.586;2022-09-09T00:01:34;15.10;99.90
12180;DHT22;6153;51.490;6.586;2022-09-09T00:04:37;15.10;99.90
12180;DHT22;6153;51.490;6.586;2022-09-09T00:07:48;15.10;99.90
12180;DHT22;6153;51.490;6.586;2022-09-09T00:10:51;15.10;99.90
12180;DHT22;6153;51.490;6.586;2022-09-09T00:13:53;15.10;99.90
12180;DHT22;6153;51.490;6.586;2022-09-09T00:16:58;15.10;99.90
12180;DHT22;6153;51.490;6.586;2022-09-09T00:20:04;15.10;99.90
12180;DHT22;6153;51.490;6.586;2022-09-09T00:29:35;15.00;99.90
12180;DHT22;6153;51.490;6.586;2022-09-09T00:32:38;15.00;99.90
12180;DHT22;6153;51.490;6.586;2022-09-09T00:35:40;15.00;99.90
12180;DHT22;6153;51.490;6.586;2022-09-09T00:38:51;15.00;99.90
12180;DHT22;6153;51.490;6.586;2022-09-09T00:42:00;15.10;99.90
12180;DHT22;6153;51.490;6.586;2022-09-09T00:45:15;15.10;99.90
12180;DHT22;6153;51.490;6.586;2022-09-09T00:48:19;15.10;99.90
12180;DHT22;6153;51.490;6.586;2022-09-09T00:51:27;15.00;99.90
12180;DHT22;6153;51.490;6.586;2022-09-09T00:57:40;14.90;99.90
12180;DHT22;6153;51.490;6.586;2022-09-09T01:00:43;14.80;99.90
12180;DHT22;6153;51.490;6.586;2022-09-09T01:03:49;14.70;99.90
12180;DHT22;6153;51.490;6.586;2022-09-09T01:06:54;14.70;99.90
12180;DHT22;6153;51.490;6.586;2022-09-09T01:09:56;14.70;99.90
12180;DHT22;6153;51.490;6.586;2022-09-09T01:12:58;14.60;99.90
12180;DHT22;6153;51.490;6.586;2022-09-09T01:16:02;14.60;99.90
12180;DHT22;6153;51.490;6.586;2022-09-09T01:19:03;14.60;99.90
12180;DHT22;6153;51.490;6.586;2022-09-09T01:28:26;14.60;99.90
12180;DHT22;6153;51.490;6.586;2022-09-09T01:31:31;14.50;99.90
12180;DHT22;6153;51.490;6.586;2022-09-09T01:34:36;14.50;99.90
12180;DHT22;6153;51.490;6.586;2022-09-09T01:37:38;14.50;99.90
12180;DHT22;6153;51.490;6.586;2022-09-09T01:40:39;14.50;99.90
12180;DHT22;6153;51.490;6.586;2022-09-09T01:43:39;14.50;99.90
12180;DHT22;6153;51.490;6.586;2022-09-09T01:46:40;14.50;99.90
12180;DHT22;6153;51.490;6.586;2022-09-09T01:49:40;14.50;99.90
12180;DHT22;6153;51.490;6.586;2022-09-09T01:52:41;14.50;99.90
12180;DHT22;6153;51.490;6.586;2022-09-09T01:55:47;14.50;99.90
12180;DHT22;6153;51.490;6.586;2022-09-09T02:05:29;14.50;99.90
12180;DHT22;6153;51.490;6.586;2022-09-09T02:08:41;14.40;99.90
12180;DHT22;6153;51.490;6.586;2022-09-09T02:11:43;14.40;99.90
12180;DHT22;6153;51.490;6.586;2022-09-09T02:15:05;14.40;99.90
12180;DHT22;6153;51.490;6.586;2022-09-09T02:18:08;14.40;99.90
12180;DHT22;6153;51.490;6.586;2022-09-09T02:21:09;14.50;99.90
12180;DHT22;6153;51.490;6.586;2022-09-09T02:24:12;14.50;99.90
12180;DHT22;6153;51.490;6.586;2022-09-09T02:27:14;14.50;99.90
12180;DHT22;6153;51.490;6.586;2022-09-09T02:30:16;14.50;99.90
12180;DHT22;6153;51.490;6.586;2022-09-09T02:33:17;14.50;99.90
12180;DHT22;6153;51.490;6.586;2022-09-09T02:36:17;14.50;99.90
12180;DHT22;6153;51.490;6.586;2022-09-09T02:39:19;14.40;99.90
12180;DHT22;6153;51.490;6.586;2022-09-09T02:42:19;14.40;99.90
12180;DHT22;6153;51.490;6.586;2022-09-09T02:45:20;14.40;99.90
12180;DHT22;6153;51.490;6.586;2022-09-09T02:48:30;14.40;99.90
12180;DHT22;6153;51.490;6.586;2022-09-09T02:51:39;14.30;99.90
12180;DHT22;6153;51.490;6.586;2022-09-09T02:54:41;14.30;99.90
12180;DHT22;6153;51.490;6.586;2022-09-09T02:57:42;14.40;99.90
12180;DHT22;6153;51.490;6.586;2022-09-09T03:00:46;14.40;99.90
12180;DHT22;6153;51.490;6.586;2022-09-09T03:03:47;14.30;99.90
12180;DHT22;6153;51.490;6.586;2022-09-09T03:06:48;14.40;99.90
12180;DHT22;6153;51.490;6.586;2022-09-09T03:09:49;14.40;99.90
12180;DHT22;6153;51.490;6.586;2022-09-09T03:12:49;14.50;99.90
12180;DHT22;6153;51.490;6.586;2022-09-09T03:15:50;14.50;99.90
12180;DHT22;6153;51.490;6.586;2022-09-09T03:18:52;14.50;99.90
12180;DHT22;6153;51.490;6.586;2022-09-09T03:21:52;14.50;99.90
12180;DHT22;6153;51.490;6.586;2022-09-09T03:24:53;14.60;99.90
12180;DHT22;6153;51.490;6.586;2022-09-09T03:27:53;14.60;99.90
12180;DHT22;6153;51.490;6.586;2022-09-09T03:30:57;14.60;99.90
12180;DHT22;6153;51.490;6.586;2022-09-09T03:33:58;14.60;99.90
12180;DHT22;6153;51.490;6.586;2022-09-09T03:36:58;14.60;99.90
12180;DHT22;6153;51.490;6.586;2022-09-09T03:39:59;14.60;99.90
12180;DHT22;6153;51.490;6.586;2022-09-09T03:43:00;14.70;99.90
12180;DHT22;6153;51.490;6.586;2022-09-09T03:46:00;14.70;99.90
12180;DHT22;6153;51.490;6.586;2022-09-09T03:49:00;14.70;99.90
12180;DHT22;6153;51.490;6.586;2022-09-09T03:52:02;14.80;99.90
12180;DHT22;6153;51.490;6.586;2022-09-09T03:55:03;14.80;99.90
12180;DHT22;6153;51.490;6.586;2022-09-09T03:58:04;14.80;99.90
12180;DHT22;6153;51.490;6.586;2022-09-09T04:01:08;14.80;99.90
12180;DHT22;6153;51.490;6.586;2022-09-09T04:04:09;14.90;99.90
12180;DHT22;6153;51.490;6.586;2022-09-09T04:07:09;14.90;99.90
12180;DHT22;6153;51.490;6.586;2022-09-09T04:10:12;14.90;99.90
12180;DHT22;6153;51.490;6.586;2022-09-09T04:13:14;15.00;99.90
12180;DHT22;6153;51.490;6.586;2022-09-09T04:16:16;15.00;99.90
12180;DHT22;6153;51.490;6.586;2022-09-09T04:19:16;15.00;99.90
12180;DHT22;6153;51.490;6.586;2022-09-09T04:22:17;15.00;99.90
12180;DHT22;6153;51.490;6.586;2022-09-09T04:25:17;15.00;99.90
12180;DHT22;6153;51.490;6.586;2022-09-09T04:28:18;15.00;99.90
12180;DHT22;6153;51.490;6.586;2022-09-09T04:31:20;15.10;99.90
12180;DHT22;6153;51.490;6.586;2022-09-09T04:34:23;15.10;99.90
12180;DHT22;6153;51.490;6.586;2022-09-09T04:37:23;15.10;99.90
12180;DHT22;6153;51.490;6.586;2022-09-09T04:40:25;15.10;99.90
12180;DHT22;6153;51.490;6.586;2022-09-09T04:43:25;15.10;99.90
12180;DHT22;6153;51.490;6.586;2022-09-09T04:46:26;15.10;99.90
12180;DHT22;6153;51.490;6.586;2022-09-09T04:49:27;15.10;99.90
12180;DHT22;6153;51.490;6.586;2022-09-09T04:52:27;15.10;99.90
12180;DHT22;6153;51.490;6.586;2022-09-09T04:55:28;15.10;99.90
12180;DHT22;6153;51.490;6.586;2022-09-09T04:58:29;15.10;99.90
12180;DHT22;6153;51.490;6.586;2022-09-09T05:01:29;15.20;99.90
12180;DHT22;6153;51.490;6.586;2022-09-09T05:04:30;15.20;99.90
12180;DHT22;6153;51.490;6.586;2022-09-09T05:07:30;15.10;99.90
12180;DHT22;6153;51.490;6.586;2022-09-09T05:10:32;15.20;99.90
12180;DHT22;6153;51.490;6.586;2022-09-09T05:13:32;15.20;99.90
12180;DHT22;6153;51.490;6.586;2022-09-09T05:16:33;15.20;99.90
12180;DHT22;6153;51.490;6.586;2022-09-09T05:19:33;15.20;99.90
12180;DHT22;6153;51.490;6.586;2022-09-09T05:22:34;15.10;99.90
12180;DHT22;6153;51.490;6.586;2022-09-09T05:25:34;15.20;99.90
12180;DHT22;6153;51.490;6.586;2022-09-09T05:28:35;15.20;99.90
12180;DHT22;6153;51.490;6.586;2022-09-09T05:31:36;15.20;99.90
12180;DHT22;6153;51.490;6.586;2022-09-09T05:34:36;15.20;99.90
12180;DHT22;6153;51.490;6.586;2022-09-09T05:37:37;15.20;99.90
12180;DHT22;6153;51.490;6.586;2022-09-09T05:40:38;15.30;99.90
12180;DHT22;6153;51.490;6.586;2022-09-09T05:43:38;15.30;99.90
12180;DHT22;6153;51.490;6.586;2022-09-09T05:46:39;15.40;99.90
12180;DHT22;6153;51.490;6.586;2022-09-09T05:49:40;15.40;99.90
12180;DHT22;6153;51.490;6.586;2022-09-09T05:52:40;15.50;99.90
12180;DHT22;6153;51.490;6.586;2022-09-09T05:55:40;15.50;99.90
12180;DHT22;6153;51.490;6.586;2022-09-09T05:58:42;15.50;99.90
12180;DHT22;6153;51.490;6.586;2022-09-09T06:01:47;15.60;99.90
12180;DHT22;6153;51.490;6.586;2022-09-09T06:04:47;15.60;99.90
12180;DHT22;6153;51.490;6.586;2022-09-09T06:07:48;15.60;99.90
12180;DHT22;6153;51.490;6.586;2022-09-09T06:10:52;15.70;99.90
12180;DHT22;6153;51.490;6.586;2022-09-09T06:13:53;15.80;99.90
12180;DHT22;6153;51.490;6.586;2022-09-09T06:16:54;15.90;99.90
12180;DHT22;6153;51.490;6.586;2022-09-09T06:19:55;16.00;99.90
12180;DHT22;6153;51.490;6.586;2022-09-09T06:22:56;16.00;99.90
12180;DHT22;6153;51.490;6.586;2022-09-09T06:26:06;16.00;99.90
12180;DHT22;6153;51.490;6.586;2022-09-09T06:29:07;16.30;99.90
12180;DHT22;6153;51.490;6.586;2022-09-09T06:32:08;16.40;99.90
12180;DHT22;6153;51.490;6.586;2022-09-09T06:35:08;16.30;99.90
12180;DHT22;6153;51.490;6.586;2022-09-09T06:38:11;16.20;99.90
12180;DHT22;6153;51.490;6.586;2022-09-09T06:41:12;16.30;99.90
12180;DHT22;6153;51.490;6.586;2022-09-09T06:44:12;16.30;99.90
12180;DHT22;6153;51.490;6.586;2022-09-09T06:47:13;16.30;99.90
12180;DHT22;6153;51.490;6.586;2022-09-09T06:50:13;16.60;99.90
12180;DHT22;6153;51.490;6.586;2022-09-09T06:53:17;17.00;99.90
12180;DHT22;6153;51.490;6.586;2022-09-09T06:56:20;17.20;99.90
12180;DHT22;6153;51.490;6.586;2022-09-09T06:59:23;17.40;99.90
12180;DHT22;6153;51.490;6.586;2022-09-09T07:02:23;17.30;99.90
12180;DHT22;6153;51.490;6.586;2022-09-09T07:05:24;17.20;99.90
12180;DHT22;6153;51.490;6.586;2022-09-09T07:08:26;17.30;99.90
12180;DHT22;6153;51.490;6.586;2022-09-09T07:11:30;17.40;99.90
12180;DHT22;6153;51.490;6.586;2022-09-09T07:14:31;17.50;99.90
12180;DHT22;6153;51.490;6.586;2022-09-09T07:17:32;17.60;99.90
12180;DHT22;6153;51.490;6.586;2022-09-09T07:20:33;17.70;99.90
12180;DHT22;6153;51.490;6.586;2022-09-09T07:23:34;17.70;99.90
12180;DHT22;6153;51.490;6.586;2022-09-09T07:26:36;17.90;99.90
12180;DHT22;6153;51.490;6.586;2022-09-09T07:29:37;18.00;99.90
12180;DHT22;6153;51.490;6.586;2022-09-09T07:32:38;18.30;99.90
12180;DHT22;6153;51.490;6.586;2022-09-09T07:35:38;18.20;99.90
12180;DHT22;6153;51.490;6.586;2022-09-09T07:38:43;18.40;99.90
12180;DHT22;6153;51.490;6.586;2022-09-09T07:41:46;18.40;99.90
12180;DHT22;6153;51.490;6.586;2022-09-09T07:44:47;18.50;99.90
12180;DHT22;6153;51.490;6.586;2022-09-09T07:47:47;18.50;99.90
12180;DHT22;6153;51.490;6.586;2022-09-09T07:50:49;18.00;99.90
12180;DHT22;6153;51.490;6.586;2022-09-09T07:53:53;17.70;99.90
12180;DHT22;6153;51.490;6.586;2022-09-09T07:56:53;17.90;99.90
12180;DHT22;6153;51.490;6.586;2022-09-09T07:59:54;18.30;99.90
12180;DHT22;6153;51.490;6.586;2022-09-09T08:02:56;18.20;99.90
12180;DHT22;6153;51.490;6.586;2022-09-09T08:05:59;18.20;99.90
12180;DHT22;6153;51.490;6.586;2022-09-09T08:09:01;18.50;99.90
12180;DHT22;6153;51.490;6.586;2022-09-09T08:12:02;18.60;99.90
12180;DHT22;6153;51.490;6.586;2022-09-09T08:15:03;18.60;99.90
12180;DHT22;6153;51.490;6.586;2022-09-09T08:18:04;18.90;99.90
12180;DHT22;6153;51.490;6.586;2022-09-09T08:21:05;19.00;99.90
12180;DHT22;6153;51.490;6.586;2022-09-09T08:24:06;19.10;99.90
12180;DHT22;6153;51.490;6.586;2022-09-09T08:27:07;19.20;99.90
12180;DHT22;6153;51.490;6.586;2022-09-09T08:30:07;19.40;99.90
12180;DHT22;6153;51.490;6.586;2022-09-09T08:33:08;19.80;99.90
12180;DHT22;6153;51.490;6.586;2022-09-09T08:36:10;19.80;99.90
12180;DHT22;6153;51.490;6.586;2022-09-09T08:39:11;19.80;99.90
12180;DHT22;6153;51.490;6.586;2022-09-09T08:45:23;19.60;99.90
12180;DHT22;6153;51.490;6.586;2022-09-09T08:51:41;19.80;99.90
12180;DHT22;6153;51.490;6.586;2022-09-09T08:54:42;20.00;99.90
12180;DHT22;6153;51.490;6.586;2022-09-09T08:57:42;19.90;99.90
12180;DHT22;6153;51.490;6.586;2022-09-09T09:00:52;19.70;99.90
12180;DHT22;6153;51.490;6.586;2022-09-09T09:13:52;19.40;99.90
12180;DHT22;6153;51.490;6.586;2022-09-09T09:16:56;19.30;99.90
12180;DHT22;6153;51.490;6.586;2022-09-09T09:19:56;19.30;99.90
12180;DHT22;6153;51.490;6.586;2022-09-09T09:22:58;19.40;99.90
12180;DHT22;6153;51.490;6.586;2022-09-09T09:26:01;19.40;99.90
12180;DHT22;6153;51.490;6.586;2022-09-09T09:29:09;19.40;99.90
12180;DHT22;6153;51.490;6.586;2022-09-09T09:32:11;19.30;99.90
12180;DHT22;6153;51.490;6.586;2022-09-09T09:35:13;19.10;99.90
12180;DHT22;6153;51.490;6.586;2022-09-09T09:41:28;19.40;99.90
12180;DHT22;6153;51.490;6.586;2022-09-09T09:44:30;19.90;99.90
12180;DHT22;6153;51.490;6.586;2022-09-09T09:47:31;20.40;99.90
12180;DHT22;6153;51.490;6.586;2022-09-09T09:50:32;20.80;99.90
12180;DHT22;6153;51.490;6.586;2022-09-09T09:53:34;21.00;99.90
12180;DHT22;6153;51.490;6.586;2022-09-09T09:56:36;21.20;99.90
12180;DHT22;6153;51.490;6.586;2022-09-09T09:59:36;21.70;99.90
12180;DHT22;6153;51.490;6.586;2022-09-09T10:02:40;22.10;99.90
12180;DHT22;6153;51.490;6.586;2022-09-09T10:05:45;21.80;99.90
12180;DHT22;6153;51.490;6.586;2022-09-09T10:08:46;21.50;99.90
12180;DHT22;6153;51.490;6.586;2022-09-09T10:11:50;21.30;99.90
12180;DHT22;6153;51.490;6.586;2022-09-09T10:18:19;21.10;99.90
12180;DHT22;6153;51.490;6.586;2022-09-09T10:28:17;20.20;99.90
12180;DHT22;6153;51.490;6.586;2022-09-09T10:56:22;20.20;99.90
12180;DHT22;6153;51.490;6.586;2022-09-09T10:59:25;20.40;99.90
12180;DHT22;6153;51.490;6.586;2022-09-09T11:02:31;20.50;99.90
12180;DHT22;6153;51.490;6.586;2022-09-09T11:05:49;20.70;99.90
12180;DHT22;6153;51.490;6.586;2022-09-09T11:08:52;20.70;99.90
12180;DHT22;6153;51.490;6.586;2022-09-09T11:11:56;20.50;99.90
12180;DHT22;6153;51.490;6.586;2022-09-09T11:15:14;20.30;99.90
12180;DHT22;6153;51.490;6.586;2022-09-09T11:18:21;20.10;99.90
12180;DHT22;6153;51.490;6.586;2022-09-09T11:21:31;20.00;99.90
12180;DHT22;6153;51.490;6.586;2022-09-09T11:24:47;20.30;99.90
12180;DHT22;6153;51.490;6.586;2022-09-09T11:28:08;20.40;99.90
12180;DHT22;6153;51.490;6.586;2022-09-09T11:41:11;20.50;99.90
12180;DHT22;6153;51.490;6.586;2022-09-09T11:44:23;20.50;99.90
12180;DHT22;6153;51.490;6.586;2022-09-09T11:47:29;20.30;99.90
12180;DHT22;6153;51.490;6.586;2022-09-09T11:50:33;20.40;99.90
12180;DHT22;6153;51.490;6.586;2022-09-09T11:53:47;20.80;99.90
12180;DHT22;6153;51.490;6.586;2022-09-09T11:56:49;21.20;99.90
12180;DHT22;6153;51.490;6.586;2022-09-09T11:59:53;21.20;99.90
12180;DHT22;6153;51.490;6.586;2022-09-09T12:02:53;21.00;99.90
12180;DHT22;6153;51.490;6.586;2022-09-09T12:05:56;21.00;99.90
12180;DHT22;6153;51.490;6.586;2022-09-09T12:09:26;21.00;99.90
12180;DHT22;6153;51.490;6.586;2022-09-09T12:12:31;21.30;99.90
12180;DHT22;6153;51.490;6.586;2022-09-09T12:15:32;21.60;99.90
12180;DHT22;6153;51.490;6.586;2022-09-09T12:18:38;21.30;99.90
12180;DHT22;6153;51.490;6.586;2022-09-09T12:21:58;21.10;99.90
12180;DHT22;6153;51.490;6.586;2022-09-09T12:28:18;20.70;99.90
12180;DHT22;6153;51.490;6.586;2022-09-09T12:34:55;19.20;99.90
12180;DHT22;6153;51.490;6.586;2022-09-09T12:38:02;19.50;99.90
12180;DHT22;6153;51.490;6.586;2022-09-09T12:41:04;19.20;99.90
12180;DHT22;6153;51.490;6.586;2022-09-09T12:44:08;19.30;99.90
12180;DHT22;6153;51.490;6.586;2022-09-09T12:47:10;19.00;99.90
12180;DHT22;6153;51.490;6.586;2022-09-09T12:50:22;19.20;99.90
12180;DHT22;6153;51.490;6.586;2022-09-09T12:53:24;19.80;99.90
12180;DHT22;6153;51.490;6.586;2022-09-09T12:56:33;20.20;99.90
12180;DHT22;6153;51.490;6.586;2022-09-09T12:59:41;20.40;99.90
12180;DHT22;6153;51.490;6.586;2022-09-09T13:03:00;20.60;99.90
12180;DHT22;6153;51.490;6.586;2022-09-09T13:06:12;20.80;99.90
12180;DHT22;6153;51.490;6.586;2022-09-09T13:09:14;20.70;99.90
12180;DHT22;6153;51.490;6.586;2022-09-09T13:12:21;20.90;99.90
12180;DHT22;6153;51.490;6.586;2022-09-09T13:15:24;20.90;99.90
12180;DHT22;6153;51.490;6.586;2022-09-09T13:18:32;20.60;99.90
12180;DHT22;6153;51.490;6.586;2022-09-09T13:21:38;20.30;99.90
12180;DHT22;6153;51.490;6.586;2022-09-09T13:24:39;20.10;99.90
12180;DHT22;6153;51.490;6.586;2022-09-09T13:27:41;20.00;99.90
12180;DHT22;6153;51.490;6.586;2022-09-09T13:30:43;20.20;99.90
12180;DHT22;6153;51.490;6.586;2022-09-09T13:33:45;20.70;99.90
12180;DHT22;6153;51.490;6.586;2022-09-09T13:36:48;20.80;99.90
12180;DHT22;6153;51.490;6.586;2022-09-09T13:39:53;20.60;99.90
12180;DHT22;6153;51.490;6.586;2022-09-09T13:42:56;20.60;99.90
12180;DHT22;6153;51.490;6.586;2022-09-09T13:46:00;21.10;99.90
12180;DHT22;6153;51.490;6.586;2022-09-09T13:49:19;21.40;99.90
12180;DHT22;6153;51.490;6.586;2022-09-09T13:52:20;21.20;99.90
12180;DHT22;6153;51.490;6.586;2022-09-09T13:55:24;21.00;99.90
12180;DHT22;6153;51.490;6.586;2022-09-09T13:58:25;21.00;99.90
12180;DHT22;6153;51.490;6.586;2022-09-09T14:01:26;20.90;99.90
12180;DHT22;6153;51.490;6.586;2022-09-09T14:04:27;20.70;99.90
12180;DHT22;6153;51.490;6.586;2022-09-09T14:07:28;20.60;99.90
12180;DHT22;6153;51.490;6.586;2022-09-09T14:10:29;20.30;99.90
12180;DHT22;6153;51.490;6.586;2022-09-09T14:13:29;19.80;99.90
12180;DHT22;6153;51.490;6.586;2022-09-09T14:16:30;19.20;99.90
12180;DHT22;6153;51.490;6.586;2022-09-09T14:19:31;18.80;99.90
12180;DHT22;6153;51.490;6.586;2022-09-09T14:22:31;18.60;99.90
12180;DHT22;6153;51.490;6.586;2022-09-09T14:25:32;17.80;99.90
12180;DHT22;6153;51.490;6.586;2022-09-09T14:28:34;17.50;99.90
12180;DHT22;6153;51.490;6.586;2022-09-09T14:31:35;17.60;99.90
12180;DHT22;6153;51.490;6.586;2022-09-09T14:34:35;17.50;99.90
12180;DHT22;6153;51.490;6.586;2022-09-09T14:37:36;17.60;99.90
12180;DHT22;6153;51.490;6.586;2022-09-09T14:40:36;17.60;99.90
12180;DHT22;6153;51.490;6.586;2022-09-09T14:43:38;17.50;99.90
12180;DHT22;6153;51.490;6.586;2022-09-09T14:46:38;17.40;99.90
12180;DHT22;6153;51.490;6.586;2022-09-09T14:49:41;17.20;99.90
12180;DHT22;6153;51.490;6.586;2022-09-09T14:52:41;17.10;99.90
12180;DHT22;6153;51.490;6.586;2022-09-09T14:55:42;17.00;99.90
12180;DHT22;6153;51.490;6.586;2022-09-09T14:58:43;17.10;99.90
12180;DHT22;6153;51.490;6.586;2022-09-09T15:01:44;17.10;99.90
12180;DHT22;6153;51.490;6.586;2022-09-09T15:04:44;17.20;99.90
12180;DHT22;6153;51.490;6.586;2022-09-09T15:07:44;17.20;99.90
12180;DHT22;6153;51.490;6.586;2022-09-09T15:10:45;17.40;99.90
12180;DHT22;6153;51.490;6.586;2022-09-09T15:13:47;17.60;99.90
12180;DHT22;6153;51.490;6.586;2022-09-09T15:16:52;17.70;99.90
12180;DHT22;6153;51.490;6.586;2022-09-09T15:19:52;17.80;99.90
12180;DHT22;6153;51.490;6.586;2022-09-09T15:22:53;17.90;99.90
12180;DHT22;6153;51.490;6.586;2022-09-09T15:25:54;18.00;99.90
12180;DHT22;6153;51.490;6.586;2022-09-09T15:28:55;18.30;99.90
12180;DHT22;6153;51.490;6.586;2022-09-09T15:31:59;18.90;99.90
12180;DHT22;6153;51.490;6.586;2022-09-09T15:34:59;19.10;99.90
12180;DHT22;6153;51.490;6.586;2022-09-09T15:38:02;19.00;99.90
12180;DHT22;6153;51.490;6.586;2022-09-09T15:41:03;19.10;99.90
12180;DHT22;6153;51.490;6.586;2022-09-09T15:44:03;19.20;99.90
12180;DHT22;6153;51.490;6.586;2022-09-09T15:47:05;19.10;99.90
12180;DHT22;6153;51.490;6.586;2022-09-09T15:50:06;19.10;99.90
12180;DHT22;6153;51.490;6.586;2022-09-09T15:53:06;19.00;99.90
12180;DHT22;6153;51.490;6.586;2022-09-09T15:56:07;19.00;99.90
12180;DHT22;6153;51.490;6.586;2022-09-09T15:59:08;19.00;99.90
12180;DHT22;6153;51.490;6.586;2022-09-09T16:02:08;18.80;99.90
12180;DHT22;6153;51.490;6.586;2022-09-09T16:05:09;18.80;99.90
12180;DHT22;6153;51.490;6.586;2022-09-09T16:08:10;18.80;99.90
12180;DHT22;6153;51.490;6.586;2022-09-09T16:11:12;18.70;99.90
12180;DHT22;6153;51.490;6.586;2022-09-09T16:14:14;18.70;99.90
12180;DHT22;6153;51.490;6.586;2022-09-09T16:17:18;18.70;99.90
12180;DHT22;6153;51.490;6.586;2022-09-09T16:20:20;18.70;99.90
12180;DHT22;6153;51.490;6.586;2022-09-09T16:23:21;18.60;99.90
12180;DHT22;6153;51.490;6.586;2022-09-09T16:26:21;18.60;99.90
12180;DHT22;6153;51.490;6.586;2022-09-09T16:29:22;18.50;99.90
12180;DHT22;6153;51.490;6.586;2022-09-09T16:32:23;18.40;99.90
12180;DHT22;6153;51.490;6.586;2022-09-09T16:35:23;18.40;99.90
12180;DHT22;6153;51.490;6.586;2022-09-09T16:38:24;18.40;99.90
12180;DHT22;6153;51.490;6.586;2022-09-09T16:41:25;18.40;99.90
12180;DHT22;6153;51.490;6.586;2022-09-09T16:44:26;18.40;99.90
12180;DHT22;6153;51.490;6.586;2022-09-09T16:47:26;18.40;99.90
12180;DHT22;6153;51.490;6.586;2022-09-09T16:50:27;18.30;99.90
12180;DHT22;6153;51.490;6.586;2022-09-09T16:53:31;18.20;99.90
12180;DHT22;6153;51.490;6.586;2022-09-09T16:56:33;18.20;99.90
12180;DHT22;6153;51.490;6.586;2022-09-09T16:59:34;18.20;99.90
12180;DHT22;6153;51.490;6.586;2022-09-09T17:02:34;18.10;99.90
12180;DHT22;6153;51.490;6.586;2022-09-09T17:05:39;18.10;99.90
12180;DHT22;6153;51.490;6.586;2022-09-09T17:08:40;18.00;99.90
12180;DHT22;6153;51.490;6.586;2022-09-09T17:11:43;18.00;99.90
12180;DHT22;6153;51.490;6.586;2022-09-09T17:14:45;18.00;99.90
12180;DHT22;6153;51.490;6.586;2022-09-09T17:17:47;17.90;99.90
12180;DHT22;6153;51.490;6.586;2022-09-09T17:20:49;17.90;99.90
12180;DHT22;6153;51.490;6.586;2022-09-09T17:23:49;17.80;99.90
12180;DHT22;6153;51.490;6.586;2022-09-09T17:26:50;17.80;99.90
12180;DHT22;6153;51.490;6.586;2022-09-09T17:29:50;17.80;99.90
12180;DHT22;6153;51.490;6.586;2022-09-09T17:32:51;17.80;99.90
12180;DHT22;6153;51.490;6.586;2022-09-09T17:35:51;17.80;99.90
12180;DHT22;6153;51.490;6.586;2022-09-09T17:38:53;17.70;99.90
12180;DHT22;6153;51.490;6.586;2022-09-09T17:41:54;17.70;99.90
12180;DHT22;6153;51.490;6.586;2022-09-09T17:44:54;17.70;99.90
12180;DHT22;6153;51.490;6.586;2022-09-09T17:47:55;17.60;99.90
12180;DHT22;6153;51.490;6.586;2022-09-09T17:50:59;17.60;99.90
12180;DHT22;6153;51.490;6.586;2022-09-09T17:54:00;17.60;99.90
12180;DHT22;6153;51.490;6.586;2022-09-09T17:57:01;17.50;99.90
12180;DHT22;6153;51.490;6.586;2022-09-09T18:00:03;17.50;99.90
12180;DHT22;6153;51.490;6.586;2022-09-09T18:03:04;17.50;99.90
12180;DHT22;6153;51.490;6.586;2022-09-09T18:06:06;17.50;99.90
12180;DHT22;6153;51.490;6.586;2022-09-09T18:09:10;17.40;99.90
12180;DHT22;6153;51.490;6.586;2022-09-09T18:12:12;17.40;99.90
12180;DHT22;6153;51.490;6.586;2022-09-09T18:15:13;17.40;99.90
12180;DHT22;6153;51.490;6.586;2022-09-09T18:18:13;17.40;99.90
12180;DHT22;6153;51.490;6.586;2022-09-09T18:21:14;17.40;99.90
12180;DHT22;6153;51.490;6.586;2022-09-09T18:24:15;17.40;99.90
12180;DHT22;6153;51.490;6.586;2022-09-09T18:27:16;17.30;99.90
12180;DHT22;6153;51.490;6.586;2022-09-09T18:30:17;17.30;99.90
12180;DHT22;6153;51.490;6.586;2022-09-09T18:33:19;17.30;99.90
12180;DHT22;6153;51.490;6.586;2022-09-09T18:36:24;17.30;99.90
12180;DHT22;6153;51.490;6.586;2022-09-09T18:39:26;17.30;99.90
12180;DHT22;6153;51.490;6.586;2022-09-09T18:42:27;17.30;99.90
12180;DHT22;6153;51.490;6.586;2022-09-09T18:45:27;17.30;99.90
12180;DHT22;6153;51.490;6.586;2022-09-09T18:48:27;17.30;99.90
12180;DHT22;6153;51.490;6.586;2022-09-09T18:51:28;17.20;99.90
12180;DHT22;6153;51.490;6.586;2022-09-09T18:54:29;17.00;99.90
12180;DHT22;6153;51.490;6.586;2022-09-09T18:57:30;16.90;99.90
12180;DHT22;6153;51.490;6.586;2022-09-09T19:00:31;16.70;99.90
12180;DHT22;6153;51.490;6.586;2022-09-09T19:03:33;16.60;99.90
12180;DHT22;6153;51.490;6.586;2022-09-09T19:06:36;16.60;99.90
12180;DHT22;6153;51.490;6.586;2022-09-09T19:09:37;16.50;99.90
12180;DHT22;6153;51.490;6.586;2022-09-09T19:12:37;16.50;99.90
12180;DHT22;6153;51.490;6.586;2022-09-09T19:15:40;16.50;99.90
12180;DHT22;6153;51.490;6.586;2022-09-09T19:18:41;16.50;99.90
12180;DHT22;6153;51.490;6.586;2022-09-09T19:21:46;16.40;99.90
12180;DHT22;6153;51.490;6.586;2022-09-09T19:24:46;16.40;99.90
12180;DHT22;6153;51.490;6.586;2022-09-09T19:27:48;16.30;99.90
12180;DHT22;6153;51.490;6.586;2022-09-09T19:30:49;16.30;99.90
12180;DHT22;6153;51.490;6.586;2022-09-09T19:33:51;16.30;99.90
12180;DHT22;6153;51.490;6.586;2022-09-09T19:36:51;16.20;99.90
12180;DHT22;6153;51.490;6.586;2022-09-09T19:39:52;16.10;99.90
12180;DHT22;6153;51.490;6.586;2022-09-09T19:42:52;16.10;99.90
12180;DHT22;6153;51.490;6.586;2022-09-09T19:45:57;16.00;99.90
12180;DHT22;6153;51.490;6.586;2022-09-09T19:48:57;15.90;99.90
12180;DHT22;6153;51.490;6.586;2022-09-09T19:52:00;16.00;99.90
12180;DHT22;6153;51.490;6.586;2022-09-09T19:55:00;15.90;99.90
12180;DHT22;6153;51.490;6.586;2022-09-09T19:58:01;16.00;99.90
12180;DHT22;6153;51.490;6.586;2022-09-09T20:01:08;16.00;99.90
12180;DHT22;6153;51.490;6.586;2022-09-09T20:04:09;15.90;99.90
12180;DHT22;6153;51.490;6.586;2022-09-09T20:07:10;16.00;99.90
12180;DHT22;6153;51.490;6.586;2022-09-09T20:10:10;16.00;99.90
12180;DHT22;6153;51.490;6.586;2022-09-09T20:13:10;15.90;99.90
12180;DHT22;6153;51.490;6.586;2022-09-09T20:16:12;15.90;99.90
12180;DHT22;6153;51.490;6.586;2022-09-09T20:19:13;15.90;99.90
12180;DHT22;6153;51.490;6.586;2022-09-09T20:22:17;16.00;99.90
12180;DHT22;6153;51.490;6.586;2022-09-09T20:25:17;15.90;99.90
12180;DHT22;6153;51.490;6.586;2022-09-09T20:28:18;15.90;99.90
12180;DHT22;6153;51.490;6.586;2022-09-09T20:31:21;15.90;99.90
12180;DHT22;6153;51.490;6.586;2022-09-09T20:34:22;15.80;99.90
12180;DHT22;6153;51.490;6.586;2022-09-09T20:37:25;15.80;99.90
12180;DHT22;6153;51.490;6.586;2022-09-09T20:40:25;15.70;99.90
12180;DHT22;6153;51.490;6.586;2022-09-09T20:43:26;15.70;99.90
12180;DHT22;6153;51.490;6.586;2022-09-09T20:46:29;15.60;99.90
12180;DHT22;6153;51.490;6.586;2022-09-09T20:49:30;15.60;99.90
12180;DHT22;6153;51.490;6.586;2022-09-09T20:52:30;15.50;99.90
12180;DHT22;6153;51.490;6.586;2022-09-09T20:55:32;15.50;99.90
12180;DHT22;6153;51.490;6.586;2022-09-09T20:58:34;15.50;99.90
12180;DHT22;6153;51.490;6.586;2022-09-09T21:01:35;15.40;99.90
12180;DHT22;6153;51.490;6.586;2022-09-09T21:04:35;15.40;99.90